sensor_id;sensor_type;location;lat;lon;timestamp;temperature;humidity
4795;DHT22;2411;47.060;15.064;2022-08-21T00:00:16;19.20;1.00
4795;DHT22;2411;47.060;15.064;2022-08-21T00:03:05;19.10;1.00
4795;DHT22;2411;47.060;15.064;2022-08-21T00:05:36;19.00;1.00
4795;DHT22;2411;47.060;15.064;2022-08-21T00:08:04;19.00;1.00
4795;DHT22;2411;47.060;15.064;2022-08-21T00:10:31;19.10;1.00
4795;DHT22;2411;47.060;15.064;2022-08-21T00:12:59;19.20;1.00
4795;DHT22;2411;47.060;15.064;2022-08-21T00:15:29;19.20;1.00
4795;DHT22;2411;47.060;15.064;2022-08-21T00:17:56;19.10;1.00
4795;DHT22;2411;47.060;15.064;2022-08-21T00:20:24;19.00;1.00
4795;DHT22;2411;47.060;15.064;2022-08-21T00:22:51;19.00;1.00
4795;DHT22;2411;47.060;15.064;2022-08-21T00:25:19;19.10;1.00
4795;DHT22;2411;47.060;15.064;2022-08-21T00:27:52;19.10;1.00
4795;DHT22;2411;47.060;15.064;2022-08-21T00:30:20;19.10;1.00
4795;DHT22;2411;47.060;15.064;2022-08-21T00:32:50;19.10;1.00
4795;DHT22;2411;47.060;15.064;2022-08-21T00:35:20;19.10;1.00
4795;DHT22;2411;47.060;15.064;2022-08-21T00:37:48;19.00;1.00
4795;DHT22;2411;47.060;15.064;2022-08-21T00:40:18;19.00;1.00
4795;DHT22;2411;47.060;15.064;2022-08-21T00:42:46;19.00;1.00
4795;DHT22;2411;47.060;15.064;2022-08-21T00:45:21;19.00;1.00
4795;DHT22;2411;47.060;15.064;2022-08-21T00:47:49;18.90;1.00
4795;DHT22;2411;47.060;15.064;2022-08-21T00:50:17;18.80;1.00
4795;DHT22;2411;47.060;15.064;2022-08-21T00:52:49;18.80;1.00
4795;DHT22;2411;47.060;15.064;2022-08-21T00:55:18;18.70;1.00
4795;DHT22;2411;47.060;15.064;2022-08-21T00:57:52;18.70;1.00
4795;DHT22;2411;47.060;15.064;2022-08-21T01:00:28;18.60;1.00
4795;DHT22;2411;47.060;15.064;2022-08-21T01:02:56;18.60;1.00
4795;DHT22;2411;47.060;15.064;2022-08-21T01:05:24;18.50;1.00
4795;DHT22;2411;47.060;15.064;2022-08-21T01:07:51;18.60;1.00
4795;DHT22;2411;47.060;15.064;2022-08-21T01:10:19;18.60;1.00
4795;DHT22;2411;47.060;15.064;2022-08-21T01:12:52;18.70;1.00
4795;DHT22;2411;47.060;15.064;2022-08-21T01:15:21;18.80;1.00
4795;DHT22;2411;47.060;15.064;2022-08-21T01:17:49;18.80;1.00
4795;DHT22;2411;47.060;15.064;2022-08-21T01:20:17;18.90;1.00
4795;DHT22;2411;47.060;15.064;2022-08-21T01:22:43;18.90;1.00
4795;DHT22;2411;47.060;15.064;2022-08-21T01:25:14;19.00;1.00
4795;DHT22;2411;47.060;15.064;2022-08-21T01:27:42;19.00;1.00
4795;DHT22;2411;47.060;15.064;2022-08-21T01:30:22;19.00;1.00
4795;DHT22;2411;47.060;15.064;2022-08-21T01:32:50;19.10;1.00
4795;DHT22;2411;47.060;15.064;2022-08-21T01:35:19;19.10;1.00
4795;DHT22;2411;47.060;15.064;2022-08-21T01:37:47;19.10;1.00
4795;DHT22;2411;47.060;15.064;2022-08-21T01:40:15;19.10;1.00
4795;DHT22;2411;47.060;15.064;2022-08-21T01:42:43;19.20;1.00
4795;DHT22;2411;47.060;15.064;2022-08-21T01:45:12;19.10;1.00
4795;DHT22;2411;47.060;15.064;2022-08-21T01:47:39;19.10;1.00
4795;DHT22;2411;47.060;15.064;2022-08-21T01:50:08;19.00;1.00
4795;DHT22;2411;47.060;15.064;2022-08-21T01:52:36;19.10;1.00
4795;DHT22;2411;47.060;15.064;2022-08-21T01:55:06;19.10;1.00
4795;DHT22;2411;47.060;15.064;2022-08-21T01:57:33;19.20;1.00
4795;DHT22;2411;47.060;15.064;2022-08-21T02:00:00;19.10;1.00
4795;DHT22;2411;47.060;15.064;2022-08-21T02:02:27;19.10;1.00
4795;DHT22;2411;47.060;15.064;2022-08-21T02:04:54;19.10;1.00
4795;DHT22;2411;47.060;15.064;2022-08-21T02:07:21;19.10;1.00
4795;DHT22;2411;47.060;15.064;2022-08-21T02:09:48;19.10;1.00
4795;DHT22;2411;47.060;15.064;2022-08-21T02:12:16;19.10;1.00
4795;DHT22;2411;47.060;15.064;2022-08-21T02:14:43;19.00;1.00
4795;DHT22;2411;47.060;15.064;2022-08-21T02:17:10;19.00;1.00
4795;DHT22;2411;47.060;15.064;2022-08-21T02:19:37;18.90;1.00
4795;DHT22;2411;47.060;15.064;2022-08-21T02:22:08;18.90;1.00
4795;DHT22;2411;47.060;15.064;2022-08-21T02:24:37;18.90;1.00
4795;DHT22;2411;47.060;15.064;2022-08-21T02:27:21;18.90;1.00
4795;DHT22;2411;47.060;15.064;2022-08-21T02:29:56;18.90;1.00
4795;DHT22;2411;47.060;15.064;2022-08-21T02:32:24;18.90;1.00
4795;DHT22;2411;47.060;15.064;2022-08-21T02:34:52;18.80;1.00
4795;DHT22;2411;47.060;15.064;2022-08-21T02:37:19;18.70;1.00
4795;DHT22;2411;47.060;15.064;2022-08-21T02:39:46;18.90;1.00
4795;DHT22;2411;47.060;15.064;2022-08-21T02:42:13;18.90;1.00
4795;DHT22;2411;47.060;15.064;2022-08-21T02:44:40;18.80;1.00
4795;DHT22;2411;47.060;15.064;2022-08-21T02:47:07;18.80;1.00
4795;DHT22;2411;47.060;15.064;2022-08-21T02:49:34;18.70;1.00
4795;DHT22;2411;47.060;15.064;2022-08-21T02:52:01;18.70;1.00
4795;DHT22;2411;47.060;15.064;2022-08-21T02:54:28;18.70;1.00
4795;DHT22;2411;47.060;15.064;2022-08-21T02:56:55;18.70;1.00
4795;DHT22;2411;47.060;15.064;2022-08-21T02:59:22;18.60;1.00
4795;DHT22;2411;47.060;15.064;2022-08-21T03:01:49;18.60;1.00
4795;DHT22;2411;47.060;15.064;2022-08-21T03:04:16;18.50;1.00
4795;DHT22;2411;47.060;15.064;2022-08-21T03:06:43;18.50;1.00
4795;DHT22;2411;47.060;15.064;2022-08-21T03:09:10;18.40;1.00
4795;DHT22;2411;47.060;15.064;2022-08-21T03:11:37;18.40;1.00
4795;DHT22;2411;47.060;15.064;2022-08-21T03:14:04;18.30;1.00
4795;DHT22;2411;47.060;15.064;2022-08-21T03:16:31;18.30;1.00
4795;DHT22;2411;47.060;15.064;2022-08-21T03:19:01;18.20;1.00
4795;DHT22;2411;47.060;15.064;2022-08-21T03:21:28;18.20;1.00
4795;DHT22;2411;47.060;15.064;2022-08-21T03:23:55;18.20;1.00
4795;DHT22;2411;47.060;15.064;2022-08-21T03:26:22;18.10;1.00
4795;DHT22;2411;47.060;15.064;2022-08-21T03:28:50;18.20;1.00
4795;DHT22;2411;47.060;15.064;2022-08-21T03:31:18;18.20;1.00
4795;DHT22;2411;47.060;15.064;2022-08-21T03:33:45;18.20;1.00
4795;DHT22;2411;47.060;15.064;2022-08-21T03:36:12;18.30;1.00
4795;DHT22;2411;47.060;15.064;2022-08-21T03:38:39;18.40;1.00
4795;DHT22;2411;47.060;15.064;2022-08-21T03:41:07;18.40;1.00
4795;DHT22;2411;47.060;15.064;2022-08-21T03:43:35;18.50;1.00
4795;DHT22;2411;47.060;15.064;2022-08-21T03:46:03;18.50;1.00
4795;DHT22;2411;47.060;15.064;2022-08-21T03:48:31;18.50;1.00
4795;DHT22;2411;47.060;15.064;2022-08-21T03:50:58;18.50;1.00
4795;DHT22;2411;47.060;15.064;2022-08-21T03:53:26;18.50;1.00
4795;DHT22;2411;47.060;15.064;2022-08-21T03:55:53;18.50;1.00
4795;DHT22;2411;47.060;15.064;2022-08-21T03:58:23;18.50;1.00
4795;DHT22;2411;47.060;15.064;2022-08-21T04:00:53;18.50;1.00
4795;DHT22;2411;47.060;15.064;2022-08-21T04:03:20;18.50;1.00
4795;DHT22;2411;47.060;15.064;2022-08-21T04:05:47;18.40;1.00
4795;DHT22;2411;47.060;15.064;2022-08-21T04:08:16;18.30;1.00
4795;DHT22;2411;47.060;15.064;2022-08-21T04:10:47;18.30;1.00
4795;DHT22;2411;47.060;15.064;2022-08-21T04:13:15;18.30;1.00
4795;DHT22;2411;47.060;15.064;2022-08-21T04:15:42;18.40;1.00
4795;DHT22;2411;47.060;15.064;2022-08-21T04:18:09;18.60;1.00
4795;DHT22;2411;47.060;15.064;2022-08-21T04:20:36;18.70;1.00
4795;DHT22;2411;47.060;15.064;2022-08-21T04:23:03;18.90;1.00
4795;DHT22;2411;47.060;15.064;2022-08-21T04:25:31;18.90;1.00
4795;DHT22;2411;47.060;15.064;2022-08-21T04:27:58;19.10;1.00
4795;DHT22;2411;47.060;15.064;2022-08-21T04:30:25;19.20;1.00
4795;DHT22;2411;47.060;15.064;2022-08-21T04:32:55;19.30;1.00
4795;DHT22;2411;47.060;15.064;2022-08-21T04:35:25;19.30;1.00
4795;DHT22;2411;47.060;15.064;2022-08-21T04:37:52;19.40;1.00
4795;DHT22;2411;47.060;15.064;2022-08-21T04:40:21;19.40;1.00
4795;DHT22;2411;47.060;15.064;2022-08-21T04:42:55;19.50;1.00
4795;DHT22;2411;47.060;15.064;2022-08-21T04:45:28;19.50;1.00
4795;DHT22;2411;47.060;15.064;2022-08-21T04:47:59;19.60;1.00
4795;DHT22;2411;47.060;15.064;2022-08-21T04:50:45;19.60;1.00
4795;DHT22;2411;47.060;15.064;2022-08-21T04:53:18;19.70;1.00
4795;DHT22;2411;47.060;15.064;2022-08-21T04:55:47;19.80;1.00
4795;DHT22;2411;47.060;15.064;2022-08-21T04:58:17;19.80;1.00
4795;DHT22;2411;47.060;15.064;2022-08-21T05:00:46;19.80;1.00
4795;DHT22;2411;47.060;15.064;2022-08-21T05:03:14;19.80;1.00
4795;DHT22;2411;47.060;15.064;2022-08-21T05:05:43;19.90;1.00
4795;DHT22;2411;47.060;15.064;2022-08-21T05:08:14;20.00;1.00
4795;DHT22;2411;47.060;15.064;2022-08-21T05:10:41;20.00;1.00
4795;DHT22;2411;47.060;15.064;2022-08-21T05:13:12;19.90;1.00
4795;DHT22;2411;47.060;15.064;2022-08-21T05:15:40;19.90;1.00
4795;DHT22;2411;47.060;15.064;2022-08-21T05:18:06;19.90;1.00
4795;DHT22;2411;47.060;15.064;2022-08-21T05:20:34;19.90;1.00
4795;DHT22;2411;47.060;15.064;2022-08-21T05:23:09;19.90;1.00
4795;DHT22;2411;47.060;15.064;2022-08-21T05:25:37;19.90;1.00
4795;DHT22;2411;47.060;15.064;2022-08-21T05:28:04;19.80;1.00
4795;DHT22;2411;47.060;15.064;2022-08-21T05:30:33;19.80;1.00
4795;DHT22;2411;47.060;15.064;2022-08-21T05:33:01;19.80;1.00
4795;DHT22;2411;47.060;15.064;2022-08-21T05:35:29;19.70;1.00
4795;DHT22;2411;47.060;15.064;2022-08-21T05:37:56;19.70;1.00
4795;DHT22;2411;47.060;15.064;2022-08-21T05:40:23;19.70;1.00
4795;DHT22;2411;47.060;15.064;2022-08-21T05:42:53;19.70;1.00
4795;DHT22;2411;47.060;15.064;2022-08-21T05:45:26;19.70;1.00
4795;DHT22;2411;47.060;15.064;2022-08-21T05:48:15;19.80;1.00
4795;DHT22;2411;47.060;15.064;2022-08-21T05:50:44;19.80;1.00
4795;DHT22;2411;47.060;15.064;2022-08-21T05:53:12;19.90;1.00
4795;DHT22;2411;47.060;15.064;2022-08-21T05:55:40;19.90;1.00
4795;DHT22;2411;47.060;15.064;2022-08-21T05:58:13;19.90;1.00
4795;DHT22;2411;47.060;15.064;2022-08-21T06:00:41;20.00;1.00
4795;DHT22;2411;47.060;15.064;2022-08-21T06:03:14;20.10;1.00
4795;DHT22;2411;47.060;15.064;2022-08-21T06:05:43;20.20;1.00
4795;DHT22;2411;47.060;15.064;2022-08-21T06:08:12;20.30;1.00
4795;DHT22;2411;47.060;15.064;2022-08-21T06:10:39;20.20;1.00
4795;DHT22;2411;47.060;15.064;2022-08-21T06:13:06;20.30;1.00
4795;DHT22;2411;47.060;15.064;2022-08-21T06:15:33;20.30;1.00
4795;DHT22;2411;47.060;15.064;2022-08-21T06:18:01;20.30;1.00
4795;DHT22;2411;47.060;15.064;2022-08-21T06:20:28;20.30;1.00
4795;DHT22;2411;47.060;15.064;2022-08-21T06:22:55;20.40;1.00
4795;DHT22;2411;47.060;15.064;2022-08-21T06:25:22;20.40;1.00
4795;DHT22;2411;47.060;15.064;2022-08-21T06:27:49;20.40;1.00
4795;DHT22;2411;47.060;15.064;2022-08-21T06:30:16;20.40;1.00
4795;DHT22;2411;47.060;15.064;2022-08-21T06:32:43;20.50;1.00
4795;DHT22;2411;47.060;15.064;2022-08-21T06:35:10;20.50;1.00
4795;DHT22;2411;47.060;15.064;2022-08-21T06:37:38;20.50;1.00
4795;DHT22;2411;47.060;15.064;2022-08-21T06:40:05;20.50;1.00
4795;DHT22;2411;47.060;15.064;2022-08-21T06:42:39;20.60;1.00
4795;DHT22;2411;47.060;15.064;2022-08-21T06:45:09;20.60;1.00
4795;DHT22;2411;47.060;15.064;2022-08-21T06:47:36;20.60;1.00
4795;DHT22;2411;47.060;15.064;2022-08-21T06:50:03;20.60;1.00
4795;DHT22;2411;47.060;15.064;2022-08-21T06:52:35;20.70;1.00
4795;DHT22;2411;47.060;15.064;2022-08-21T06:55:06;20.70;1.00
4795;DHT22;2411;47.060;15.064;2022-08-21T06:57:34;20.80;1.00
4795;DHT22;2411;47.060;15.064;2022-08-21T07:00:03;20.80;1.00
4795;DHT22;2411;47.060;15.064;2022-08-21T07:02:31;20.80;1.00
4795;DHT22;2411;47.060;15.064;2022-08-21T07:05:00;20.90;1.00
4795;DHT22;2411;47.060;15.064;2022-08-21T07:07:43;20.90;1.00
4795;DHT22;2411;47.060;15.064;2022-08-21T07:10:10;20.90;1.00
4795;DHT22;2411;47.060;15.064;2022-08-21T07:12:48;20.90;1.00
4795;DHT22;2411;47.060;15.064;2022-08-21T07:15:18;21.00;1.00
4795;DHT22;2411;47.060;15.064;2022-08-21T07:17:45;21.00;1.00
4795;DHT22;2411;47.060;15.064;2022-08-21T07:20:12;21.00;1.00
4795;DHT22;2411;47.060;15.064;2022-08-21T07:22:40;21.10;1.00
4795;DHT22;2411;47.060;15.064;2022-08-21T07:25:08;21.10;1.00
4795;DHT22;2411;47.060;15.064;2022-08-21T07:27:35;21.30;1.00
4795;DHT22;2411;47.060;15.064;2022-08-21T07:30:04;21.40;1.00
4795;DHT22;2411;47.060;15.064;2022-08-21T07:32:31;21.50;1.00
4795;DHT22;2411;47.060;15.064;2022-08-21T07:34:58;21.60;1.00
4795;DHT22;2411;47.060;15.064;2022-08-21T07:37:25;21.80;1.00
4795;DHT22;2411;47.060;15.064;2022-08-21T07:39:52;21.70;1.00
4795;DHT22;2411;47.060;15.064;2022-08-21T07:42:19;21.80;1.00
4795;DHT22;2411;47.060;15.064;2022-08-21T07:44:46;21.90;1.00
4795;DHT22;2411;47.060;15.064;2022-08-21T07:47:16;22.00;1.00
4795;DHT22;2411;47.060;15.064;2022-08-21T07:50:04;22.00;1.00
4795;DHT22;2411;47.060;15.064;2022-08-21T07:52:31;22.20;1.00
4795;DHT22;2411;47.060;15.064;2022-08-21T07:54:59;22.40;1.00
4795;DHT22;2411;47.060;15.064;2022-08-21T07:57:32;22.50;1.00
4795;DHT22;2411;47.060;15.064;2022-08-21T07:59:58;22.60;1.00
4795;DHT22;2411;47.060;15.064;2022-08-21T08:02:28;22.50;1.00
4795;DHT22;2411;47.060;15.064;2022-08-21T08:05:03;22.60;1.00
4795;DHT22;2411;47.060;15.064;2022-08-21T08:07:30;22.50;1.00
4795;DHT22;2411;47.060;15.064;2022-08-21T08:09:57;22.50;1.00
4795;DHT22;2411;47.060;15.064;2022-08-21T08:12:25;22.40;1.00
4795;DHT22;2411;47.060;15.064;2022-08-21T08:15:00;22.40;1.00
4795;DHT22;2411;47.060;15.064;2022-08-21T08:17:28;22.40;1.00
4795;DHT22;2411;47.060;15.064;2022-08-21T08:19:55;22.30;1.00
4795;DHT22;2411;47.060;15.064;2022-08-21T08:22:22;22.20;1.00
4795;DHT22;2411;47.060;15.064;2022-08-21T08:24:51;22.10;1.00
4795;DHT22;2411;47.060;15.064;2022-08-21T08:27:19;22.20;1.00
4795;DHT22;2411;47.060;15.064;2022-08-21T08:29:47;22.30;1.00
4795;DHT22;2411;47.060;15.064;2022-08-21T08:32:14;22.50;1.00
4795;DHT22;2411;47.060;15.064;2022-08-21T08:34:41;22.60;1.00
4795;DHT22;2411;47.060;15.064;2022-08-21T08:37:09;22.70;1.00
4795;DHT22;2411;47.060;15.064;2022-08-21T08:39:37;22.60;1.00
4795;DHT22;2411;47.060;15.064;2022-08-21T08:42:09;22.60;1.00
4795;DHT22;2411;47.060;15.064;2022-08-21T08:47:31;22.70;1.00
4795;DHT22;2411;47.060;15.064;2022-08-21T08:50:20;22.90;1.00
4795;DHT22;2411;47.060;15.064;2022-08-21T08:52:59;23.00;1.00
4795;DHT22;2411;47.060;15.064;2022-08-21T08:55:39;23.00;1.00
4795;DHT22;2411;47.060;15.064;2022-08-21T08:58:08;23.20;1.00
4795;DHT22;2411;47.060;15.064;2022-08-21T09:00:38;23.60;1.00
4795;DHT22;2411;47.060;15.064;2022-08-21T09:03:05;23.70;1.00
4795;DHT22;2411;47.060;15.064;2022-08-21T09:05:49;23.80;1.00
4795;DHT22;2411;47.060;15.064;2022-08-21T09:16:43;23.50;1.00
4795;DHT22;2411;47.060;15.064;2022-08-21T09:24:46;23.90;1.00
4795;DHT22;2411;47.060;15.064;2022-08-21T09:27:19;23.90;1.00
4795;DHT22;2411;47.060;15.064;2022-08-21T09:29:50;24.00;1.00
4795;DHT22;2411;47.060;15.064;2022-08-21T09:32:22;24.10;1.00
4795;DHT22;2411;47.060;15.064;2022-08-21T09:35:10;24.00;1.00
4795;DHT22;2411;47.060;15.064;2022-08-21T09:43:03;24.10;1.00
4795;DHT22;2411;47.060;15.064;2022-08-21T09:45:31;24.40;1.00
4795;DHT22;2411;47.060;15.064;2022-08-21T09:48:20;24.50;1.00
4795;DHT22;2411;47.060;15.064;2022-08-21T09:50:53;24.30;1.00
4795;DHT22;2411;47.060;15.064;2022-08-21T09:53:26;24.30;1.00
4795;DHT22;2411;47.060;15.064;2022-08-21T09:56:04;24.30;1.00
4795;DHT22;2411;47.060;15.064;2022-08-21T09:58:51;24.30;1.00
4795;DHT22;2411;47.060;15.064;2022-08-21T10:01:22;23.90;1.00
4795;DHT22;2411;47.060;15.064;2022-08-21T10:04:05;23.80;1.00
4795;DHT22;2411;47.060;15.064;2022-08-21T10:06:33;23.90;1.00
4795;DHT22;2411;47.060;15.064;2022-08-21T10:11:32;24.10;1.00
4795;DHT22;2411;47.060;15.064;2022-08-21T10:14:29;24.20;1.00
4795;DHT22;2411;47.060;15.064;2022-08-21T10:25:09;25.20;1.00
4795;DHT22;2411;47.060;15.064;2022-08-21T10:28:02;25.20;1.00
4795;DHT22;2411;47.060;15.064;2022-08-21T10:36:18;25.20;1.00
4795;DHT22;2411;47.060;15.064;2022-08-21T10:38:51;25.50;1.00
4795;DHT22;2411;47.060;15.064;2022-08-21T10:47:54;26.10;1.00
4795;DHT22;2411;47.060;15.064;2022-08-21T10:50:47;26.40;1.00
4795;DHT22;2411;47.060;15.064;2022-08-21T10:58:37;25.80;1.00
4795;DHT22;2411;47.060;15.064;2022-08-21T11:01:12;26.00;1.00
4795;DHT22;2411;47.060;15.064;2022-08-21T11:03:44;26.30;1.00
4795;DHT22;2411;47.060;15.064;2022-08-21T11:06:24;26.40;1.00
4795;DHT22;2411;47.060;15.064;2022-08-21T11:08:58;26.70;1.00
4795;DHT22;2411;47.060;15.064;2022-08-21T11:11:36;26.90;1.00
4795;DHT22;2411;47.060;15.064;2022-08-21T11:29:39;25.40;1.00
4795;DHT22;2411;47.060;15.064;2022-08-21T11:43:36;25.40;1.00
4795;DHT22;2411;47.060;15.064;2022-08-21T11:52:28;25.70;1.00
4795;DHT22;2411;47.060;15.064;2022-08-21T11:57:31;25.70;1.00
4795;DHT22;2411;47.060;15.064;2022-08-21T12:00:07;25.40;1.00
4795;DHT22;2411;47.060;15.064;2022-08-21T12:02:42;25.40;1.00
4795;DHT22;2411;47.060;15.064;2022-08-21T12:05:22;25.70;1.00
4795;DHT22;2411;47.060;15.064;2022-08-21T12:08:04;26.00;1.00
4795;DHT22;2411;47.060;15.064;2022-08-21T12:10:35;26.00;1.00
4795;DHT22;2411;47.060;15.064;2022-08-21T12:13:29;26.40;1.00
4795;DHT22;2411;47.060;15.064;2022-08-21T12:16:12;26.70;1.00
4795;DHT22;2411;47.060;15.064;2022-08-21T12:18:41;27.00;1.00
4795;DHT22;2411;47.060;15.064;2022-08-21T12:21:24;26.70;1.00
4795;DHT22;2411;47.060;15.064;2022-08-21T12:26:29;26.30;1.00
4795;DHT22;2411;47.060;15.064;2022-08-21T12:29:10;26.40;1.00
4795;DHT22;2411;47.060;15.064;2022-08-21T12:31:52;26.50;1.00
4795;DHT22;2411;47.060;15.064;2022-08-21T12:34:24;26.70;1.00
4795;DHT22;2411;47.060;15.064;2022-08-21T12:37:03;26.80;1.00
4795;DHT22;2411;47.060;15.064;2022-08-21T12:39:32;26.20;1.00
4795;DHT22;2411;47.060;15.064;2022-08-21T12:44:49;25.40;1.00
4795;DHT22;2411;47.060;15.064;2022-08-21T12:47:31;25.40;1.00
4795;DHT22;2411;47.060;15.064;2022-08-21T12:50:10;25.30;1.00
4795;DHT22;2411;47.060;15.064;2022-08-21T12:52:57;25.40;1.00
4795;DHT22;2411;47.060;15.064;2022-08-21T12:55:31;25.20;1.00
4795;DHT22;2411;47.060;15.064;2022-08-21T12:57:59;25.10;1.00
4795;DHT22;2411;47.060;15.064;2022-08-21T13:00:29;25.00;1.00
4795;DHT22;2411;47.060;15.064;2022-08-21T13:02:57;25.20;1.00
4795;DHT22;2411;47.060;15.064;2022-08-21T13:05:34;24.80;1.00
4795;DHT22;2411;47.060;15.064;2022-08-21T13:08:07;24.90;1.00
4795;DHT22;2411;47.060;15.064;2022-08-21T13:10:36;25.00;1.00
4795;DHT22;2411;47.060;15.064;2022-08-21T13:13:21;24.70;1.00
4795;DHT22;2411;47.060;15.064;2022-08-21T13:15:59;24.30;1.00
4795;DHT22;2411;47.060;15.064;2022-08-21T13:18:30;24.10;1.00
4795;DHT22;2411;47.060;15.064;2022-08-21T13:21:14;23.90;1.00
4795;DHT22;2411;47.060;15.064;2022-08-21T13:23:41;23.80;1.00
4795;DHT22;2411;47.060;15.064;2022-08-21T13:26:19;23.70;1.00
4795;DHT22;2411;47.060;15.064;2022-08-21T13:28:47;23.80;1.00
4795;DHT22;2411;47.060;15.064;2022-08-21T13:31:29;23.80;1.00
4795;DHT22;2411;47.060;15.064;2022-08-21T13:33:58;23.90;1.00
4795;DHT22;2411;47.060;15.064;2022-08-21T13:36:32;24.00;1.00
4795;DHT22;2411;47.060;15.064;2022-08-21T13:39:03;23.70;1.00
4795;DHT22;2411;47.060;15.064;2022-08-21T13:41:35;23.80;1.00
4795;DHT22;2411;47.060;15.064;2022-08-21T13:44:12;23.90;1.00
4795;DHT22;2411;47.060;15.064;2022-08-21T13:46:46;23.60;1.00
4795;DHT22;2411;47.060;15.064;2022-08-21T13:49:18;23.50;1.00
4795;DHT22;2411;47.060;15.064;2022-08-21T13:51:46;23.50;1.00
4795;DHT22;2411;47.060;15.064;2022-08-21T13:56:45;23.50;1.00
4795;DHT22;2411;47.060;15.064;2022-08-21T13:59:28;23.40;1.00
4795;DHT22;2411;47.060;15.064;2022-08-21T14:01:59;23.40;1.00
4795;DHT22;2411;47.060;15.064;2022-08-21T14:04:33;23.40;1.00
4795;DHT22;2411;47.060;15.064;2022-08-21T14:07:03;23.50;1.00
4795;DHT22;2411;47.060;15.064;2022-08-21T14:09:42;23.40;1.00
4795;DHT22;2411;47.060;15.064;2022-08-21T14:15:19;22.90;1.00
4795;DHT22;2411;47.060;15.064;2022-08-21T14:17:48;22.50;1.00
4795;DHT22;2411;47.060;15.064;2022-08-21T14:20:35;22.40;1.00
4795;DHT22;2411;47.060;15.064;2022-08-21T14:23:03;22.10;1.00
4795;DHT22;2411;47.060;15.064;2022-08-21T14:25:44;22.00;1.00
4795;DHT22;2411;47.060;15.064;2022-08-21T14:28:27;22.10;1.00
4795;DHT22;2411;47.060;15.064;2022-08-21T14:30:56;22.20;1.00
4795;DHT22;2411;47.060;15.064;2022-08-21T14:33:27;22.20;1.00
4795;DHT22;2411;47.060;15.064;2022-08-21T14:35:54;22.50;1.00
4795;DHT22;2411;47.060;15.064;2022-08-21T14:38:23;22.80;1.00
4795;DHT22;2411;47.060;15.064;2022-08-21T14:40:58;23.10;1.00
4795;DHT22;2411;47.060;15.064;2022-08-21T14:43:27;23.30;1.00
4795;DHT22;2411;47.060;15.064;2022-08-21T14:45:55;23.40;1.00
4795;DHT22;2411;47.060;15.064;2022-08-21T14:48:22;23.40;1.00
4795;DHT22;2411;47.060;15.064;2022-08-21T14:50:49;23.20;1.00
4795;DHT22;2411;47.060;15.064;2022-08-21T14:53:16;22.90;1.00
4795;DHT22;2411;47.060;15.064;2022-08-21T14:55:43;22.70;1.00
4795;DHT22;2411;47.060;15.064;2022-08-21T14:58:29;22.70;1.00
4795;DHT22;2411;47.060;15.064;2022-08-21T15:00:56;22.70;1.00
4795;DHT22;2411;47.060;15.064;2022-08-21T15:03:25;22.60;1.00
4795;DHT22;2411;47.060;15.064;2022-08-21T15:05:52;22.60;1.00
4795;DHT22;2411;47.060;15.064;2022-08-21T15:08:19;22.50;1.00
4795;DHT22;2411;47.060;15.064;2022-08-21T15:10:46;22.50;1.00
4795;DHT22;2411;47.060;15.064;2022-08-21T15:13:34;22.40;1.00
4795;DHT22;2411;47.060;15.064;2022-08-21T15:16:02;22.20;1.00
4795;DHT22;2411;47.060;15.064;2022-08-21T15:18:30;22.00;1.00
4795;DHT22;2411;47.060;15.064;2022-08-21T15:20:57;21.90;1.00
4795;DHT22;2411;47.060;15.064;2022-08-21T15:23:24;21.80;1.00
4795;DHT22;2411;47.060;15.064;2022-08-21T15:25:52;21.90;1.00
4795;DHT22;2411;47.060;15.064;2022-08-21T15:28:20;21.90;1.00
4795;DHT22;2411;47.060;15.064;2022-08-21T15:30:50;21.90;1.00
4795;DHT22;2411;47.060;15.064;2022-08-21T15:33:18;21.80;1.00
4795;DHT22;2411;47.060;15.064;2022-08-21T15:35:45;21.70;1.00
4795;DHT22;2411;47.060;15.064;2022-08-21T15:38:14;21.60;1.00
4795;DHT22;2411;47.060;15.064;2022-08-21T15:40:42;21.50;1.00
4795;DHT22;2411;47.060;15.064;2022-08-21T15:43:27;21.40;1.00
4795;DHT22;2411;47.060;15.064;2022-08-21T15:45:59;21.40;1.00
4795;DHT22;2411;47.060;15.064;2022-08-21T15:48:27;21.30;1.00
4795;DHT22;2411;47.060;15.064;2022-08-21T15:50:54;21.30;1.00
4795;DHT22;2411;47.060;15.064;2022-08-21T15:53:21;21.30;1.00
4795;DHT22;2411;47.060;15.064;2022-08-21T15:55:48;21.20;1.00
4795;DHT22;2411;47.060;15.064;2022-08-21T15:58:16;21.20;1.00
4795;DHT22;2411;47.060;15.064;2022-08-21T16:00:44;21.10;1.00
4795;DHT22;2411;47.060;15.064;2022-08-21T16:03:14;21.00;1.00
4795;DHT22;2411;47.060;15.064;2022-08-21T16:05:46;21.00;1.00
4795;DHT22;2411;47.060;15.064;2022-08-21T16:08:15;21.00;1.00
4795;DHT22;2411;47.060;15.064;2022-08-21T16:10:42;21.00;1.00
4795;DHT22;2411;47.060;15.064;2022-08-21T16:13:18;20.90;1.00
4795;DHT22;2411;47.060;15.064;2022-08-21T16:15:46;20.90;1.00
4795;DHT22;2411;47.060;15.064;2022-08-21T16:18:13;20.90;1.00
4795;DHT22;2411;47.060;15.064;2022-08-21T16:20:40;20.90;1.00
4795;DHT22;2411;47.060;15.064;2022-08-21T16:23:07;20.80;1.00
4795;DHT22;2411;47.060;15.064;2022-08-21T16:25:36;20.80;1.00
4795;DHT22;2411;47.060;15.064;2022-08-21T16:28:08;20.80;1.00
4795;DHT22;2411;47.060;15.064;2022-08-21T16:30:37;20.70;1.00
4795;DHT22;2411;47.060;15.064;2022-08-21T16:33:05;20.70;1.00
4795;DHT22;2411;47.060;15.064;2022-08-21T16:35:32;20.60;1.00
4795;DHT22;2411;47.060;15.064;2022-08-21T16:37:59;20.50;1.00
4795;DHT22;2411;47.060;15.064;2022-08-21T16:40:26;20.30;1.00
4795;DHT22;2411;47.060;15.064;2022-08-21T16:42:54;20.20;1.00
4795;DHT22;2411;47.060;15.064;2022-08-21T16:45:21;20.20;1.00
4795;DHT22;2411;47.060;15.064;2022-08-21T16:47:49;20.20;1.00
4795;DHT22;2411;47.060;15.064;2022-08-21T16:50:21;20.10;1.00
4795;DHT22;2411;47.060;15.064;2022-08-21T16:52:48;20.10;1.00
4795;DHT22;2411;47.060;15.064;2022-08-21T16:55:16;20.00;1.00
4795;DHT22;2411;47.060;15.064;2022-08-21T16:57:43;20.10;1.00
4795;DHT22;2411;47.060;15.064;2022-08-21T17:00:10;20.00;1.00
4795;DHT22;2411;47.060;15.064;2022-08-21T17:02:45;19.90;1.00
4795;DHT22;2411;47.060;15.064;2022-08-21T17:05:13;19.70;1.00
4795;DHT22;2411;47.060;15.064;2022-08-21T17:07:42;19.60;1.00
4795;DHT22;2411;47.060;15.064;2022-08-21T17:10:11;19.60;1.00
4795;DHT22;2411;47.060;15.064;2022-08-21T17:12:41;19.50;1.00
4795;DHT22;2411;47.060;15.064;2022-08-21T17:15:18;19.50;1.00
4795;DHT22;2411;47.060;15.064;2022-08-21T17:17:48;19.50;1.00
4795;DHT22;2411;47.060;15.064;2022-08-21T17:20:16;19.40;1.00
4795;DHT22;2411;47.060;15.064;2022-08-21T17:22:45;19.30;1.00
4795;DHT22;2411;47.060;15.064;2022-08-21T17:25:12;19.20;1.00
4795;DHT22;2411;47.060;15.064;2022-08-21T17:27:42;19.40;1.00
4795;DHT22;2411;47.060;15.064;2022-08-21T17:30:11;19.30;1.00
4795;DHT22;2411;47.060;15.064;2022-08-21T17:32:38;19.20;1.00
4795;DHT22;2411;47.060;15.064;2022-08-21T17:35:06;19.10;1.00
4795;DHT22;2411;47.060;15.064;2022-08-21T17:37:33;19.10;1.00
4795;DHT22;2411;47.060;15.064;2022-08-21T17:40:02;19.10;1.00
4795;DHT22;2411;47.060;15.064;2022-08-21T17:42:31;19.10;1.00
4795;DHT22;2411;47.060;15.064;2022-08-21T17:45:00;19.10;1.00
4795;DHT22;2411;47.060;15.064;2022-08-21T17:47:27;19.00;1.00
4795;DHT22;2411;47.060;15.064;2022-08-21T17:49:54;19.10;1.00
4795;DHT22;2411;47.060;15.064;2022-08-21T17:52:21;19.30;1.00
4795;DHT22;2411;47.060;15.064;2022-08-21T17:54:48;19.30;1.00
4795;DHT22;2411;47.060;15.064;2022-08-21T17:57:20;19.30;1.00
4795;DHT22;2411;47.060;15.064;2022-08-21T17:59:48;19.30;1.00